ENGMENKB

Guest
Details From ENGM - Oslo Gardermoen
To ENKB - KVERNBERGET
Flight Number -
Tags generated
Created
Modified
Stats Distance 203 nm / 376 km
Max Altitude 24,900 ft / 7,590 m
Waypoints 4
Social Downloads 1
Likes 0
Share VATSIM

Download

Looking for another format? Having issues loading an existing format? Contact us
Advertisement - Login to hide

Notes

Basic altitude profile: - Ascent Rate: 3000ft/min - Ascent Speed: 266kts - Cruise Altitude: 29000ft - Cruise Speed: 450kts - Descent Rate: 1600ft/min - Descent Speed: 245kts Options: - Use NATs: yes - Use PACOTS: yes - Use low airways: no - Use high airways: yes

Route

ENGM OSVIG UP615 TONDI ENKB

ID Type Via Altitude Latitude Longitude Leg Dist Tot Dist Heading (true) Name
O ENGM APT - 0 ft / 0 m 60.19451˚ 11.09900˚ - 0 nm - Oslo Gardermoen
OSVIG FIX - 24,900 ft / 7,590 m 61.07444˚ 9.39889˚ 72 nm 72 nm 317° / 316° -
TONDI FIX UP615 (AWY-HI) 24,500 ft / 7,468 m 62.00000˚ 8.70778˚ 59 nm 131 nm 341° / 340° -
O ENKB APT - 0 ft / 0 m 63.11187˚ 7.82453˚ 71 nm 202 nm 340° / 339° KVERNBERGET

Altitude Profile

Advertisement - Login to hide

Weather


0- 5 10 15 20 25 30 35+ Temperature / ° C

Clouds and Precipitation
Forecast for 2018-05-25 00:00 UTC. Updated 40 minutes ago

Ground ~20,000 ft ~40,000 ft Winds

ENGM

Details ICAO ENGM (OSL)
Name Oslo Gardermoen
Region Norway
Timezone Europe/Oslo (UTC+2.0)
Stats Elevation 681 ft / 208 m (AMSL)
Location 60.194507° 11.098998°
Runways 2
Magnetic Variation 3.461° E

METAR

ENGM 242320Z VRB01KT CAVOK 16/05 Q1027

Decode

TAF

TAF ENGM 242300Z 2500/2524 VRB05KT CAVOK PROB30 2512/2516 20010KT

Decode

Departure Runways

ID Width Length Bearing (true) Bearing (mag) Surface Threshold Offset Overrun Length
01L 148 ft / 45 m 12,144 ft / 3,702 m 15.89° 12.43° Concrete 0 ft / 0 m 499 ft / 152 m
01R 148 ft / 45 m 10,014 ft / 3,052 m 15.89° 12.43° Concrete 0 ft / 0 m 499 ft / 152 m
19L 148 ft / 45 m 10,014 ft / 3,052 m 195.91° 192.45° Concrete 0 ft / 0 m 466 ft / 142 m
19R 148 ft / 45 m 12,144 ft / 3,702 m 195.91° 192.45° Concrete 0 ft / 0 m 482 ft / 147 m

ENKB

Details ICAO ENKB (KSU)
Name KVERNBERGET
Region Norway
Timezone Europe/Oslo (UTC+2.0)
Stats Elevation 204 ft / 62 m (AMSL)
Location 63.111872° 7.824532°
Runways 1
Magnetic Variation 2.070° E

METAR

ENKB 242320Z AUTO 12003KT 090V150 9999 OVC005/// 08/07 Q1028 RMK WIND 745FT 14007KT

Decode

TAF

Not found

Destination Runways

ID Width Length Bearing (true) Bearing (mag) Surface Threshold Offset Overrun Length
07 148 ft / 45 m 6,192 ft / 1,887 m 71.39° 69.32° Asphalt 197 ft / 60 m 0 ft / 0 m
25 148 ft / 45 m 6,192 ft / 1,887 m 251.42° 249.35° Asphalt 263 ft / 80 m 0 ft / 0 m

Approach Navaids

Runway Type Ident Frequency Range Bearing (true) Bearing (mag) Slope Elevation
07 Localiser KB 110.10 MHz 18 nm / 33 km 71.60° 69.53° - 204 ft / 62 m (AMSL)
07 Glidescope KB 110.10 MHz 10 nm / 19 km 71.41° 69.34° 3.00° 204 ft / 62 m (AMSL)

Popular Alternatives